SBCYSBKP

Guest
Details From SBCY - Marechal Rondon
To SBKP - Sao Paulo Viracopos
Flight Number -
Tags decoded
Created
Modified
Stats Distance 686 nm / 1,270 km
Max Altitude 0 ft / 0 m
Waypoints 4
Social Downloads 1
Likes 0
Share VATSIM

Download

Looking for another format? Having issues loading an existing format? Contact us
Advertisement - Login to hide

Notes

Requested: SBCY KOKLI UZ8 MABMA UL201 HASTE UZ31 AAQ SBKP Unmatched points: KOKLI UZ8 MABMA UL201 UZ31

Route

SBCY HASTE AAQ SBKP

ID Type Via Altitude Latitude Longitude Leg Dist Tot Dist Heading (true) Name
O SBCY APT - 0 ft / 0 m -15.65293˚ -56.11672˚ - 0 nm - Marechal Rondon
HASTE FIX - 0 ft / 0 m -21.10717˚ -48.34333˚ 550 nm 550 nm 128° / 125° -
AAQ NDB - 0 ft / 0 m -21.81300˚ -48.13950˚ 43 nm 594 nm 165° / 165° ARARAQUARA NDB
O SBKP APT - 0 ft / 0 m -23.00738˚ -47.13452˚ 90 nm 685 nm 142° / 142° Sao Paulo Viracopos

Altitude Profile

Advertisement - Login to hide

Weather


0- 5 10 15 20 25 30 35+ Temperature / ° C

Clouds and Precipitation
Forecast for 2017-12-16 18:00 UTC. Updated 14 minutes ago

Ground ~20,000 ft ~40,000 ft Winds

SBCY

Details ICAO SBCY (CGB)
Name Marechal Rondon
Region Brazil
Timezone America/Cuiaba (UTC-3.0)
Stats Elevation 609 ft / 186 m (AMSL)
Location -15.652930° -56.116720°
Runways 1
Magnetic Variation 17.399° W

METAR

SBCY 161400Z 35011KT 9999 SCT020 FEW025TCU 30/23 Q1011

Decode

TAF

TAF SBCY 161000Z 1612/1712 34005KT CAVOK TX33/1619Z TN17/1708Z BECMG 1613/1615 03005KT 9999 FEW020 BECMG 1615/1617 32010KT BKN020 BECMG 1620/1622 29008KT BECMG 1623/1701 CAVOK RMK PEN

Decode

Departure Runways

ID Width Length Bearing (true) Bearing (mag) Surface Threshold Offset Overrun Length
17 148 ft / 45 m 7,558 ft / 2,304 m 152.83° 170.23° Asphalt 0 ft / 0 m 190 ft / 58 m
35 148 ft / 45 m 7,558 ft / 2,304 m 332.82° 350.22° Asphalt 0 ft / 0 m 190 ft / 58 m

SBKP

Details ICAO SBKP (VCP)
Name Sao Paulo Viracopos
Region Brazil
Timezone America/Sao_Paulo (UTC-2.0)
Stats Elevation 2,170 ft / 661 m (AMSL)
Location -23.007383° -47.134522°
Runways 1
Magnetic Variation 21.195° W

METAR

SBKP 161500Z 34012KT 9999 BKN045 30/15 Q1016

Decode

TAF

TAF SBKP 160915Z 1612/1712 33010KT 9999 SCT040TX32/1617Z TN20/1709Z TEMPO 1617/1623 24005KT TSRA FEW045 FEW050CB BECMG 1623/1701 12005KT CAVOK BECMG 1708/1710 08008KT RMK PGN

Decode

Destination Runways

ID Width Length Bearing (true) Bearing (mag) Surface Threshold Offset Overrun Length
15 148 ft / 45 m 10,639 ft / 3,243 m 127.91° 149.11° Asphalt 0 ft / 0 m 205 ft / 62 m
33 148 ft / 45 m 10,639 ft / 3,243 m 307.90° 329.10° Asphalt 0 ft / 0 m 205 ft / 62 m

Approach Navaids

Runway Type Ident Frequency Range Bearing (true) Bearing (mag) Slope Elevation
15 Localiser IKP 110.30 MHz 18 nm / 33 km 127.95° 149.15° - 2,170 ft / 661 m (AMSL)
15 Glidescope IKP 110.30 MHz 10 nm / 19 km 127.90° 149.10° 3.00° 2,170 ft / 661 m (AMSL)

Popular Alternatives